Impacts TAF Board INFO
FOR SITUATIONAL AWARENESS. NOT TO BE USED FOR FLIGHT PLANNING PURPOSES.
IDs:

KBFM - Mobile/Downtown Arpt, AL, US

Issued at 1726 UTC 23 May 2018
Updated at 2225 UTC 23 May 2018
Potential Impact None Slight Moderate High
Time<<24/11Z 24/12Z 24/13Z 24/14Z 24/15Z 24/16Z 24/17Z 24/18Z 24/19Z 24/20Z 24/21Z 24/22Z 24/23Z>>
Type PRVL PRVL PRVL PRVL PRVL PRVL PRVL
VIS >6 >6 >6 >6 >6 >6 >6
CIG -- -- -- -- 30 30 30
Cover SCT SCT SCT SCT BKN BKN BKN
FltCat VFR VFR VFR VFR MVFR MVFR MVFR
WX -- -- -- -- VCSH VCSH VCSH
WDir VRB VRB VRB VRB VRB VRB VRB
WSpd 0 0 0 0 5 5 5
WGst -- -- -- -- -- -- --

Raw TAF
KBFM 231726Z 2318/2418 10006KT P6SM VCTS BKN035CB BKN250
  TEMPO 2319/2322 VRB10G20KT 3SM -TSRA BKN025CB OVC040
  FM232300 19006KT P6SM SCT060 BKN080 BKN100
  FM240300 VRB03KT P6SM VCTS SCT050CB BKN100
  FM240600 00000KT P6SM SCT250
  FM241500 VRB05KT P6SM VCSH BKN030 BKN250


METAR Board
Radar Display
Forecast Discussion

FOR SITUATIONAL AWARENESS. NOT TO BE USED FOR FLIGHT PLANNING PURPOSES.